createdAt,value
2023-01-09T00:01:42.820Z,87.14
2023-01-09T00:04:11.503Z,87.27
2023-01-09T00:06:43.629Z,87.33
2023-01-09T00:09:11.838Z,87.09
2023-01-09T00:11:39.959Z,87.52
2023-01-09T00:14:09.644Z,87.20
2023-01-09T00:16:39.097Z,87.11
2023-01-09T00:19:07.374Z,86.67
2023-01-09T00:21:36.796Z,86.57
2023-01-09T00:24:06.160Z,86.82
2023-01-09T00:26:34.670Z,87.07
2023-01-09T00:29:04.011Z,86.76
2023-01-09T00:31:32.448Z,87.08
2023-01-09T00:34:05.795Z,86.83
2023-01-09T00:36:33.945Z,87.06
2023-01-09T00:39:02.294Z,87.13
2023-01-09T00:41:52.157Z,87.13
2023-01-09T00:44:30.631Z,87.27
2023-01-09T00:47:08.539Z,87.15
2023-01-09T00:49:37.547Z,87.27
2023-01-09T00:52:07.232Z,87.46
2023-01-09T00:54:35.481Z,87.07
2023-01-09T00:57:03.875Z,87.18
2023-01-09T00:59:32.070Z,87.05
2023-01-09T01:02:00.479Z,87.23
2023-01-09T01:04:47.496Z,87.00
2023-01-09T01:07:34.332Z,87.00
2023-01-09T01:10:03.476Z,86.95
2023-01-09T01:12:31.602Z,86.96
2023-01-09T01:15:00.009Z,87.00
2023-01-09T01:17:28.153Z,86.95
2023-01-09T01:19:56.378Z,86.95
2023-01-09T01:22:24.834Z,86.99
2023-01-09T01:24:52.941Z,86.87
2023-01-09T01:27:21.059Z,86.86
2023-01-09T01:29:49.295Z,87.11
2023-01-09T01:32:17.363Z,86.78
2023-01-09T01:34:47.540Z,86.89
2023-01-09T01:37:15.942Z,87.01
2023-01-09T01:39:44.092Z,86.81
2023-01-09T01:42:14.425Z,86.79
2023-01-09T01:45:03.538Z,86.58
2023-01-09T01:47:38.498Z,86.78
2023-01-09T01:50:35.634Z,86.91
2023-01-09T01:53:11.605Z,86.55
2023-01-09T01:55:47.560Z,86.43
2023-01-09T01:58:16.354Z,86.23
2023-01-09T02:00:47.879Z,86.45
2023-01-09T02:03:20.162Z,85.94
2023-01-09T02:05:49.135Z,85.84
2023-01-09T02:08:18.062Z,85.81
2023-01-09T02:10:46.718Z,85.75
2023-01-09T02:13:15.265Z,85.60
2023-01-09T02:15:58.601Z,85.41
2023-01-09T02:18:52.155Z,84.48
2023-01-09T02:22:16.355Z,84.66
2023-01-09T02:25:28.600Z,84.79
2023-01-09T02:28:32.892Z,85.05
2023-01-09T02:31:21.949Z,84.92
2023-01-09T02:34:28.303Z,84.65
2023-01-09T02:36:56.360Z,84.61
2023-01-09T02:39:38.406Z,84.72
2023-01-09T02:42:17.971Z,84.12
2023-01-09T02:44:46.326Z,84.25
2023-01-09T02:47:20.719Z,84.15
2023-01-09T02:50:05.230Z,83.95
2023-01-09T02:53:04.203Z,83.87
2023-01-09T02:55:57.042Z,83.61
2023-01-09T02:59:14.548Z,83.07
2023-01-09T03:01:58.300Z,83.49
2023-01-09T03:04:55.702Z,83.09
2023-01-09T03:07:53.891Z,83.26
2023-01-09T03:10:38.737Z,82.84
2023-01-09T03:13:10.784Z,83.20
2023-01-09T03:15:42.420Z,83.21
2023-01-09T03:18:13.995Z,82.66
2023-01-09T03:20:42.930Z,82.84
2023-01-09T03:23:10.988Z,82.81
2023-01-09T03:25:39.183Z,82.51
2023-01-09T03:28:18.633Z,82.65
2023-01-09T03:30:46.780Z,82.57
2023-01-09T03:33:14.872Z,82.38
2023-01-09T03:35:42.982Z,82.51
2023-01-09T03:38:11.334Z,82.25
2023-01-09T03:40:40.258Z,82.35
2023-01-09T03:43:08.403Z,82.14
2023-01-09T03:45:36.657Z,82.20
2023-01-09T03:48:05.245Z,82.32
2023-01-09T03:50:33.360Z,82.29
2023-01-09T03:53:01.844Z,82.28
2023-01-09T03:55:30.134Z,82.26
2023-01-09T03:57:58.238Z,82.08
2023-01-09T04:00:26.455Z,82.05
2023-01-09T04:02:54.587Z,82.35
2023-01-09T04:05:22.813Z,82.08
2023-01-09T04:07:50.995Z,81.97
2023-01-09T04:10:19.205Z,81.97
2023-01-09T04:12:47.316Z,82.13
2023-01-09T04:15:15.586Z,82.04
2023-01-09T04:17:43.707Z,81.99
2023-01-09T04:20:12.224Z,81.77
2023-01-09T04:22:40.648Z,82.15
2023-01-09T04:25:09.636Z,81.94
2023-01-09T04:27:37.841Z,81.83
2023-01-09T04:30:06.904Z,81.99
2023-01-09T04:32:35.031Z,81.78
2023-01-09T04:35:03.271Z,81.64
2023-01-09T04:37:31.402Z,81.81
2023-01-09T04:39:59.532Z,81.94
2023-01-09T04:42:27.639Z,81.75
2023-01-09T04:44:55.830Z,81.88
2023-01-09T04:47:24.105Z,81.90
2023-01-09T04:49:52.349Z,81.93
2023-01-09T04:52:20.549Z,81.88
2023-01-09T04:54:48.694Z,81.97
2023-01-09T04:57:17.528Z,81.75
2023-01-09T04:59:45.686Z,82.02
2023-01-09T05:02:14.211Z,81.68
2023-01-09T05:04:42.753Z,81.65
2023-01-09T05:07:10.878Z,81.76
2023-01-09T05:09:39.052Z,81.74
2023-01-09T05:12:07.761Z,81.61
2023-01-09T05:14:35.890Z,81.58
2023-01-09T05:17:04.046Z,81.32
2023-01-09T05:19:32.178Z,81.50
2023-01-09T05:22:00.297Z,81.32
2023-01-09T05:24:28.506Z,81.77
2023-01-09T05:26:56.683Z,81.62
2023-01-09T05:29:25.016Z,81.94
2023-01-09T05:31:53.169Z,81.48
2023-01-09T05:34:22.052Z,81.80
2023-01-09T05:36:50.139Z,81.41
2023-01-09T05:39:18.309Z,81.72
2023-01-09T05:41:46.405Z,81.61
2023-01-09T05:44:14.551Z,81.69
2023-01-09T05:46:42.748Z,81.67
2023-01-09T05:49:10.906Z,81.66
2023-01-09T05:51:39.070Z,81.55
2023-01-09T05:54:07.585Z,81.30
2023-01-09T05:56:35.765Z,81.60
2023-01-09T05:59:03.876Z,81.53
2023-01-09T06:01:32.064Z,81.32
2023-01-09T06:04:00.235Z,81.49
2023-01-09T06:06:28.406Z,81.47
2023-01-09T06:08:56.517Z,80.88
2023-01-09T06:11:24.689Z,80.99
2023-01-09T06:13:52.786Z,80.94
2023-01-09T06:16:20.948Z,80.97
2023-01-09T06:18:49.091Z,81.10
2023-01-09T06:21:17.328Z,80.80
2023-01-09T06:23:45.598Z,80.88
2023-01-09T06:26:13.875Z,80.86
2023-01-09T06:28:44.501Z,80.80
2023-01-09T06:31:13.391Z,80.51
2023-01-09T06:33:41.843Z,80.59
2023-01-09T06:36:10.057Z,80.63
2023-01-09T06:38:38.192Z,80.20
2023-01-09T06:41:06.604Z,80.44
2023-01-09T06:43:34.774Z,80.45
2023-01-09T06:46:04.282Z,80.30
2023-01-09T06:48:33.521Z,80.38
2023-01-09T06:51:02.092Z,80.28
2023-01-09T06:53:30.242Z,80.08
2023-01-09T06:55:58.400Z,80.05
2023-01-09T06:58:26.559Z,79.83
2023-01-09T07:00:56.197Z,79.84
2023-01-09T07:03:24.401Z,79.75
2023-01-09T07:05:52.545Z,79.76
2023-01-09T07:08:20.756Z,79.86
2023-01-09T07:10:49.165Z,79.38
2023-01-09T07:13:17.274Z,79.50
2023-01-09T07:15:45.517Z,79.48
2023-01-09T07:18:13.681Z,79.56
2023-01-09T07:20:42.326Z,79.73
2023-01-09T07:23:13.846Z,79.17
2023-01-09T07:25:43.026Z,79.29
2023-01-09T07:28:11.641Z,79.10
2023-01-09T07:30:39.771Z,78.88
2023-01-09T07:33:07.946Z,79.11
2023-01-09T07:35:36.248Z,78.81
2023-01-09T07:38:04.489Z,78.99
2023-01-09T07:40:32.629Z,78.80
2023-01-09T07:43:00.888Z,78.74
2023-01-09T07:45:28.985Z,78.28
2023-01-09T07:47:59.654Z,78.41
2023-01-09T07:50:27.969Z,77.54
2023-01-09T07:52:56.122Z,78.05
2023-01-09T07:55:24.275Z,77.62
2023-01-09T07:57:52.944Z,77.58
2023-01-09T08:00:21.527Z,77.21
2023-01-09T08:02:53.989Z,77.67
2023-01-09T08:05:22.751Z,77.85
2023-01-09T08:07:51.479Z,78.11
2023-01-09T08:10:20.629Z,77.83
2023-01-09T08:12:49.652Z,77.48
2023-01-09T08:15:18.043Z,77.67
2023-01-09T08:17:46.744Z,77.68
2023-01-09T08:20:17.452Z,77.19
2023-01-09T08:22:49.724Z,77.34
2023-01-09T08:25:18.383Z,77.62
2023-01-09T08:27:47.037Z,77.43
2023-01-09T08:30:16.708Z,77.13
2023-01-09T08:32:50.740Z,77.18
2023-01-09T08:35:19.241Z,76.80
2023-01-09T08:37:48.713Z,76.82
2023-01-09T08:40:18.215Z,76.86
2023-01-09T08:43:04.985Z,76.67
2023-01-09T08:46:26.043Z,76.78
2023-01-09T08:48:54.249Z,76.77
2023-01-09T08:51:22.436Z,77.11
2023-01-09T08:53:50.542Z,76.56
2023-01-09T08:56:18.659Z,76.40
2023-01-09T08:58:46.779Z,76.30
2023-01-09T09:01:14.910Z,76.62
2023-01-09T09:03:43.082Z,76.09
2023-01-09T09:06:11.192Z,76.25
2023-01-09T09:08:39.312Z,76.18
2023-01-09T09:11:07.571Z,75.40
2023-01-09T09:13:35.730Z,75.73
2023-01-09T09:16:04.003Z,75.98
2023-01-09T09:18:32.140Z,76.04
2023-01-09T09:21:00.236Z,76.09
2023-01-09T09:23:28.349Z,75.20
2023-01-09T09:25:56.509Z,75.39
2023-01-09T09:28:24.589Z,75.50
2023-01-09T09:30:52.713Z,75.50
2023-01-09T09:33:20.997Z,75.08
2023-01-09T09:35:49.168Z,74.89
2023-01-09T09:38:17.939Z,74.61
2023-01-09T09:41:07.434Z,74.78
2023-01-09T09:44:30.784Z,74.44
2023-01-09T09:47:20.534Z,74.29
2023-01-09T09:50:42.725Z,74.42
2023-01-09T09:53:26.480Z,74.14
2023-01-09T09:55:54.752Z,73.97
2023-01-09T09:58:41.739Z,74.42
2023-01-09T10:01:15.700Z,74.22
2023-01-09T10:03:49.013Z,74.08
2023-01-09T10:06:42.463Z,74.30
2023-01-09T10:09:37.102Z,73.88
2023-01-09T10:12:15.707Z,73.71
2023-01-09T10:14:43.896Z,73.55
2023-01-09T10:17:38.332Z,72.32
2023-01-09T10:20:40.652Z,72.68
2023-01-09T10:23:11.657Z,72.56
2023-01-09T10:26:12.005Z,71.75
2023-01-09T10:29:12.663Z,71.16
2023-01-09T10:31:54.280Z,71.58
2023-01-09T10:34:28.519Z,72.23
2023-01-09T10:37:15.178Z,71.74
2023-01-09T10:40:14.875Z,72.16
2023-01-09T10:42:47.460Z,70.76
2023-01-09T10:45:36.673Z,71.25
2023-01-09T10:48:35.511Z,70.63
2023-01-09T10:51:31.755Z,70.55
2023-01-09T10:53:59.860Z,70.65
2023-01-09T10:56:34.465Z,71.12
2023-01-09T10:59:02.689Z,70.84
2023-01-09T11:01:34.596Z,70.63
2023-01-09T11:04:03.151Z,70.39
2023-01-09T11:06:47.678Z,70.30
2023-01-09T11:09:16.917Z,70.44
2023-01-09T11:11:45.491Z,69.92
2023-01-09T11:14:27.956Z,70.30
2023-01-09T11:17:04.165Z,70.22
2023-01-09T11:19:35.549Z,69.99
2023-01-09T11:22:14.576Z,70.06
2023-01-09T11:24:43.011Z,69.66
2023-01-09T11:27:14.250Z,69.99
2023-01-09T11:29:43.386Z,70.13
2023-01-09T11:32:24.868Z,69.92
2023-01-09T11:34:53.011Z,70.25
2023-01-09T11:37:31.415Z,70.43
2023-01-09T11:40:01.004Z,70.41
2023-01-09T11:42:48.630Z,70.45
2023-01-09T11:45:20.488Z,70.19
2023-01-09T11:47:48.668Z,70.63
2023-01-09T11:50:25.178Z,70.62
2023-01-09T11:53:16.483Z,70.69
2023-01-09T11:55:47.274Z,70.62
2023-01-09T11:58:21.867Z,70.47
2023-01-09T12:01:17.105Z,70.89
2023-01-09T12:04:12.993Z,70.77
2023-01-09T12:06:43.911Z,70.89
2023-01-09T12:09:28.545Z,70.56
2023-01-09T12:12:23.966Z,71.02
2023-01-09T12:15:08.600Z,71.17
2023-01-09T12:17:56.488Z,70.90
2023-01-09T12:20:41.653Z,70.91
2023-01-09T12:23:49.884Z,70.82
2023-01-09T12:26:52.298Z,70.76
2023-01-09T12:29:58.258Z,70.76
2023-01-09T12:33:02.951Z,70.46
2023-01-09T12:35:38.916Z,70.45
2023-01-09T12:38:47.898Z,70.20
2023-01-09T12:41:34.100Z,69.91
2023-01-09T12:44:35.873Z,69.97
2023-01-09T12:47:46.066Z,69.53
2023-01-09T12:50:43.381Z,68.03
2023-01-09T12:53:22.099Z,68.24
2023-01-09T12:56:11.627Z,68.38
2023-01-09T12:58:49.396Z,68.19
2023-01-09T13:01:26.269Z,68.03
2023-01-09T13:04:24.425Z,67.28
2023-01-09T13:07:02.326Z,67.12
2023-01-09T13:09:47.474Z,67.59
2023-01-09T13:12:21.568Z,67.66
2023-01-09T13:15:02.180Z,67.65
2023-01-09T13:17:44.013Z,67.46
2023-01-09T13:20:29.722Z,67.68
2023-01-09T13:23:00.177Z,67.37
2023-01-09T13:25:36.881Z,67.25
2023-01-09T13:28:18.760Z,66.74
2023-01-09T13:31:46.448Z,66.46
2023-01-09T13:34:22.860Z,66.92
2023-01-09T13:36:54.805Z,66.45
2023-01-09T13:39:25.679Z,66.34
2023-01-09T13:42:18.331Z,66.73
2023-01-09T13:44:49.440Z,66.93
2023-01-09T13:47:28.052Z,66.78
2023-01-09T13:50:11.819Z,66.75
2023-01-09T13:52:42.263Z,67.26
2023-01-09T13:55:16.105Z,67.47
2023-01-09T13:58:05.836Z,67.48
2023-01-09T14:00:36.937Z,67.45
2023-01-09T14:03:38.353Z,67.16
2023-01-09T14:06:14.307Z,67.05
2023-01-09T14:08:44.163Z,66.90
2023-01-09T14:11:20.614Z,67.13
2023-01-09T14:14:00.352Z,67.18
2023-01-09T14:16:30.296Z,67.27
2023-01-09T14:19:27.690Z,66.90
2023-01-09T14:21:58.099Z,66.68
2023-01-09T14:24:42.657Z,67.05
2023-01-09T14:28:03.657Z,66.96
2023-01-09T14:31:00.406Z,67.62
2023-01-09T14:33:32.635Z,67.46
2023-01-09T14:36:19.494Z,68.00
2023-01-09T14:38:53.226Z,68.20
2023-01-09T14:42:06.374Z,68.42
2023-01-09T14:44:53.265Z,68.66
2023-01-09T14:47:55.534Z,68.73
2023-01-09T14:50:51.257Z,68.96
2023-01-09T14:53:30.701Z,69.15
2023-01-09T14:56:01.744Z,69.15
2023-01-09T14:58:36.890Z,69.29
2023-01-09T15:01:12.461Z,69.54
2023-01-09T15:03:51.519Z,69.84
2023-01-09T15:06:28.131Z,69.72
2023-01-09T15:09:03.469Z,69.81
2023-01-09T15:11:33.585Z,69.78
2023-01-09T15:14:04.349Z,69.87
2023-01-09T15:16:33.631Z,69.94
2023-01-09T15:19:06.249Z,70.05
2023-01-09T15:21:34.474Z,70.13
2023-01-09T15:24:27.204Z,70.37
2023-01-09T15:27:01.956Z,70.21
2023-01-09T15:29:30.295Z,70.26
2023-01-09T15:32:29.733Z,70.26
2023-01-09T15:34:58.091Z,70.38
2023-01-09T15:37:32.938Z,70.41
2023-01-09T15:40:05.323Z,70.34
2023-01-09T15:42:57.146Z,70.45
2023-01-09T15:45:29.417Z,70.56
2023-01-09T15:48:24.590Z,70.31
2023-01-09T15:51:11.988Z,70.58
2023-01-09T15:53:50.284Z,70.95
2023-01-09T15:56:30.675Z,71.08
2023-01-09T15:59:00.576Z,70.92
2023-01-09T16:01:37.332Z,71.04
2023-01-09T16:04:17.078Z,71.18
2023-01-09T16:06:51.299Z,71.48
2023-01-09T16:09:28.250Z,71.52
2023-01-09T16:12:04.125Z,71.69
2023-01-09T16:14:38.537Z,71.54
2023-01-09T16:17:18.641Z,71.64
2023-01-09T16:20:18.082Z,71.70
2023-01-09T16:22:55.508Z,71.63
2023-01-09T16:25:37.069Z,71.67
2023-01-09T16:28:28.241Z,71.68
2023-01-09T16:31:03.708Z,71.65
2023-01-09T16:33:32.135Z,71.79
2023-01-09T16:36:00.913Z,71.62
2023-01-09T16:38:29.157Z,71.78
2023-01-09T16:41:24.874Z,71.79
2023-01-09T16:43:53.120Z,72.03
2023-01-09T16:46:21.656Z,71.97
2023-01-09T16:48:49.966Z,71.85
2023-01-09T16:51:22.291Z,71.76
2023-01-09T16:53:50.490Z,71.79
2023-01-09T16:56:23.396Z,71.69
2023-01-09T16:58:54.703Z,71.71
2023-01-09T17:01:23.275Z,71.82
2023-01-09T17:03:52.589Z,72.06
2023-01-09T17:06:39.590Z,71.84
2023-01-09T17:09:17.950Z,71.75
2023-01-09T17:11:46.319Z,71.76
2023-01-09T17:14:14.921Z,71.80
2023-01-09T17:16:46.778Z,71.87
2023-01-09T17:19:20.684Z,71.84
2023-01-09T17:21:48.937Z,71.74
2023-01-09T17:24:35.936Z,71.77
2023-01-09T17:27:22.842Z,71.80
2023-01-09T17:29:50.959Z,72.04
2023-01-09T17:32:19.307Z,71.91
2023-01-09T17:34:47.457Z,71.82
2023-01-09T17:37:18.129Z,72.14
2023-01-09T17:39:46.442Z,71.82
2023-01-09T17:42:14.647Z,71.86
2023-01-09T17:44:42.744Z,71.88
2023-01-09T17:47:15.438Z,71.79
2023-01-09T17:49:43.718Z,71.82
2023-01-09T17:52:12.063Z,71.82
2023-01-09T17:54:40.406Z,72.00
2023-01-09T17:57:16.255Z,72.14
2023-01-09T17:59:44.990Z,72.00
2023-01-09T18:02:18.565Z,72.07
2023-01-09T18:04:46.833Z,71.84
2023-01-09T18:07:17.208Z,71.82
2023-01-09T18:09:45.416Z,71.92
2023-01-09T18:12:13.741Z,71.75
2023-01-09T18:14:42.218Z,71.75
2023-01-09T18:17:13.158Z,71.92
2023-01-09T18:19:41.325Z,71.92
2023-01-09T18:22:09.439Z,71.84
2023-01-09T18:24:37.762Z,71.90
2023-01-09T18:27:05.879Z,72.17
2023-01-09T18:29:34.100Z,72.22
2023-01-09T18:32:02.239Z,72.30
2023-01-09T18:34:30.403Z,72.30
2023-01-09T18:36:58.549Z,72.33
2023-01-09T18:40:11.885Z,72.43
2023-01-09T18:42:41.027Z,72.70
2023-01-09T18:45:10.514Z,72.71
2023-01-09T18:47:38.685Z,72.51
2023-01-09T18:50:07.343Z,72.81
2023-01-09T18:52:35.454Z,72.72
2023-01-09T18:55:04.209Z,72.82
2023-01-09T18:57:32.293Z,72.85
2023-01-09T19:00:00.633Z,73.02
2023-01-09T19:02:28.888Z,72.92
2023-01-09T19:04:57.134Z,73.22
2023-01-09T19:07:25.387Z,73.17
2023-01-09T19:09:53.714Z,73.50
2023-01-09T19:12:21.924Z,73.49
2023-01-09T19:14:50.112Z,73.49
2023-01-09T19:17:18.245Z,73.42
2023-01-09T19:19:46.361Z,73.36
2023-01-09T19:22:15.228Z,73.60
2023-01-09T19:24:43.528Z,73.45
2023-01-09T19:27:11.769Z,73.37
2023-01-09T19:29:40.234Z,73.36
2023-01-09T19:32:08.651Z,73.38
2023-01-09T19:34:36.823Z,73.29
2023-01-09T19:37:05.220Z,73.22
2023-01-09T19:39:33.982Z,73.32
2023-01-09T19:42:02.134Z,73.17
2023-01-09T19:44:32.511Z,73.21
2023-01-09T19:47:00.640Z,73.21
2023-01-09T19:49:28.797Z,73.07
2023-01-09T19:51:57.013Z,73.18
2023-01-09T19:54:25.192Z,73.23
2023-01-09T19:56:53.283Z,73.21
2023-01-09T19:59:21.459Z,73.24
2023-01-09T20:01:49.708Z,73.33
2023-01-09T20:04:18.732Z,73.16
2023-01-09T20:06:49.547Z,73.16
2023-01-09T20:09:22.254Z,73.01
2023-01-09T20:11:50.429Z,73.08
2023-01-09T20:14:19.887Z,73.01
2023-01-09T20:16:48.863Z,73.08
2023-01-09T20:19:17.263Z,73.11
2023-01-09T20:21:45.437Z,73.24
2023-01-09T20:24:16.889Z,73.25
2023-01-09T20:26:48.474Z,73.21
2023-01-09T20:29:16.998Z,73.20
2023-01-09T20:31:45.158Z,73.13
2023-01-09T20:34:14.874Z,73.10
2023-01-09T20:36:43.583Z,72.93
2023-01-09T20:39:12.369Z,72.99
2023-01-09T20:41:40.785Z,72.90
2023-01-09T20:44:14.455Z,72.59
2023-01-09T20:46:49.441Z,72.44
2023-01-09T20:49:18.625Z,72.38
2023-01-09T20:51:50.543Z,72.36
2023-01-09T20:54:21.709Z,72.01
2023-01-09T20:56:50.551Z,72.24
2023-01-09T20:59:22.847Z,72.06
2023-01-09T21:01:51.503Z,72.18
2023-01-09T21:04:20.128Z,71.90
2023-01-09T21:06:50.220Z,71.90
2023-01-09T21:09:20.260Z,71.81
2023-01-09T21:11:48.409Z,71.88
2023-01-09T21:14:16.806Z,71.93
2023-01-09T21:16:53.842Z,71.70
2023-01-09T21:19:23.400Z,71.67
2023-01-09T21:21:53.271Z,71.47
2023-01-09T21:24:21.845Z,71.48
2023-01-09T21:26:49.935Z,71.44
2023-01-09T21:29:18.136Z,71.38
2023-01-09T21:31:46.421Z,71.37
2023-01-09T21:34:17.430Z,71.41
2023-01-09T21:36:48.919Z,71.34
2023-01-09T21:39:20.334Z,71.41
2023-01-09T21:42:06.997Z,71.42
2023-01-09T21:44:54.448Z,71.48
2023-01-09T21:47:22.963Z,71.57
2023-01-09T21:49:51.323Z,71.44
2023-01-09T21:52:19.517Z,71.53
2023-01-09T21:54:47.703Z,71.56
2023-01-09T21:57:15.825Z,71.67
2023-01-09T21:59:44.237Z,71.56
2023-01-09T22:02:15.857Z,71.73
2023-01-09T22:04:48.839Z,71.79
2023-01-09T22:07:17.912Z,71.88
2023-01-09T22:09:46.079Z,71.86
2023-01-09T22:12:14.227Z,71.96
2023-01-09T22:14:42.356Z,72.02
2023-01-09T22:17:10.480Z,71.99
2023-01-09T22:19:38.718Z,71.98
2023-01-09T22:22:08.610Z,72.03
2023-01-09T22:24:37.056Z,71.90
2023-01-09T22:27:05.236Z,71.70
2023-01-09T22:29:33.489Z,71.75
2023-01-09T22:32:01.670Z,71.66
2023-01-09T22:34:31.178Z,71.69
2023-01-09T22:36:59.542Z,71.26
2023-01-09T22:39:27.902Z,71.33
2023-01-09T22:41:56.152Z,71.47
2023-01-09T22:44:24.239Z,71.62
2023-01-09T22:46:52.367Z,71.75
2023-01-09T22:49:20.478Z,71.44
2023-01-09T22:51:48.696Z,71.23
2023-01-09T22:54:17.043Z,71.21
2023-01-09T22:56:45.211Z,71.29
2023-01-09T22:59:13.381Z,71.00
2023-01-09T23:01:41.551Z,70.91
2023-01-09T23:04:13.877Z,71.14
2023-01-09T23:06:42.219Z,70.96
2023-01-09T23:09:10.377Z,70.46
2023-01-09T23:11:57.034Z,70.49
2023-01-09T23:14:25.150Z,69.75
2023-01-09T23:16:53.734Z,69.84
2023-01-09T23:19:22.343Z,69.88
2023-01-09T23:21:50.657Z,69.74
2023-01-09T23:24:19.286Z,69.53
2023-01-09T23:26:47.839Z,69.60
2023-01-09T23:29:16.117Z,69.38
2023-01-09T23:31:45.534Z,69.36
2023-01-09T23:34:19.762Z,69.56
2023-01-09T23:36:48.272Z,69.61
2023-01-09T23:39:16.818Z,69.43
2023-01-09T23:42:04.187Z,69.81
2023-01-09T23:44:33.085Z,69.61
2023-01-09T23:47:01.168Z,69.53
2023-01-09T23:49:29.490Z,69.05
2023-01-09T23:51:58.016Z,68.91
2023-01-09T23:54:26.161Z,69.21
2023-01-09T23:56:56.456Z,69.24
2023-01-09T23:59:24.829Z,69.20
